sensor_id;sensor_type;location;lat;lon;timestamp;P1;durP1;ratioP1;P2;durP2;ratioP2
12110;SDS011;6119;52.372;8.990;2022-12-18T00:01:56;11.60;;;5.70;;
12110;SDS011;6119;52.372;8.990;2022-12-18T00:04:45;7.00;;;4.67;;
12110;SDS011;6119;52.372;8.990;2022-12-18T00:07:32;10.63;;;5.47;;
12110;SDS011;6119;52.372;8.990;2022-12-18T00:10:19;8.33;;;4.67;;
12110;SDS011;6119;52.372;8.990;2022-12-18T00:13:07;11.03;;;4.93;;
12110;SDS011;6119;52.372;8.990;2022-12-18T00:15:54;7.63;;;4.83;;
12110;SDS011;6119;52.372;8.990;2022-12-18T00:18:41;11.80;;;5.00;;
12110;SDS011;6119;52.372;8.990;2022-12-18T00:21:31;8.90;;;5.00;;
12110;SDS011;6119;52.372;8.990;2022-12-18T00:24:18;6.93;;;4.40;;
12110;SDS011;6119;52.372;8.990;2022-12-18T00:27:04;10.57;;;5.00;;
12110;SDS011;6119;52.372;8.990;2022-12-18T00:29:51;10.47;;;5.27;;
12110;SDS011;6119;52.372;8.990;2022-12-18T00:32:38;10.97;;;5.17;;
12110;SDS011;6119;52.372;8.990;2022-12-18T00:35:25;10.63;;;5.67;;
12110;SDS011;6119;52.372;8.990;2022-12-18T00:38:14;8.17;;;5.23;;
12110;SDS011;6119;52.372;8.990;2022-12-18T00:41:00;11.97;;;5.63;;
12110;SDS011;6119;52.372;8.990;2022-12-18T00:43:47;10.37;;;4.90;;
12110;SDS011;6119;52.372;8.990;2022-12-18T00:46:33;8.97;;;5.37;;
12110;SDS011;6119;52.372;8.990;2022-12-18T00:49:19;9.33;;;4.93;;
12110;SDS011;6119;52.372;8.990;2022-12-18T00:52:06;11.47;;;5.83;;
12110;SDS011;6119;52.372;8.990;2022-12-18T00:54:54;9.33;;;4.60;;
12110;SDS011;6119;52.372;8.990;2022-12-18T00:57:44;12.03;;;4.90;;
12110;SDS011;6119;52.372;8.990;2022-12-18T01:00:30;12.57;;;4.80;;
12110;SDS011;6119;52.372;8.990;2022-12-18T01:03:17;7.57;;;4.20;;
12110;SDS011;6119;52.372;8.990;2022-12-18T01:06:05;12.50;;;4.47;;
12110;SDS011;6119;52.372;8.990;2022-12-18T01:08:52;8.10;;;4.47;;
12110;SDS011;6119;52.372;8.990;2022-12-18T01:11:40;7.83;;;4.80;;
12110;SDS011;6119;52.372;8.990;2022-12-18T01:14:27;8.50;;;4.37;;
12110;SDS011;6119;52.372;8.990;2022-12-18T01:17:14;9.97;;;4.07;;
12110;SDS011;6119;52.372;8.990;2022-12-18T01:20:00;5.67;;;4.23;;
12110;SDS011;6119;52.372;8.990;2022-12-18T01:22:47;5.30;;;4.03;;
12110;SDS011;6119;52.372;8.990;2022-12-18T01:25:35;6.93;;;3.63;;
12110;SDS011;6119;52.372;8.990;2022-12-18T01:28:23;5.60;;;3.80;;
12110;SDS011;6119;52.372;8.990;2022-12-18T01:31:10;5.23;;;3.90;;
12110;SDS011;6119;52.372;8.990;2022-12-18T01:34:00;8.37;;;4.07;;
12110;SDS011;6119;52.372;8.990;2022-12-18T01:36:47;9.37;;;4.40;;
12110;SDS011;6119;52.372;8.990;2022-12-18T01:39:36;5.37;;;3.50;;
12110;SDS011;6119;52.372;8.990;2022-12-18T01:42:23;7.90;;;4.00;;
12110;SDS011;6119;52.372;8.990;2022-12-18T01:45:25;9.63;;;4.33;;
12110;SDS011;6119;52.372;8.990;2022-12-18T01:48:13;6.30;;;3.57;;
12110;SDS011;6119;52.372;8.990;2022-12-18T01:51:00;7.43;;;4.30;;
12110;SDS011;6119;52.372;8.990;2022-12-18T01:53:47;8.57;;;3.77;;
12110;SDS011;6119;52.372;8.990;2022-12-18T01:56:34;5.77;;;3.70;;
12110;SDS011;6119;52.372;8.990;2022-12-18T01:59:20;5.93;;;3.90;;
12110;SDS011;6119;52.372;8.990;2022-12-18T02:02:08;8.50;;;4.67;;
12110;SDS011;6119;52.372;8.990;2022-12-18T02:04:57;5.90;;;3.73;;
12110;SDS011;6119;52.372;8.990;2022-12-18T02:07:46;6.63;;;3.97;;
12110;SDS011;6119;52.372;8.990;2022-12-18T02:10:43;5.97;;;3.80;;
12110;SDS011;6119;52.372;8.990;2022-12-18T02:13:41;5.90;;;3.83;;
12110;SDS011;6119;52.372;8.990;2022-12-18T02:16:34;7.17;;;3.50;;
12110;SDS011;6119;52.372;8.990;2022-12-18T02:19:39;7.13;;;4.00;;
12110;SDS011;6119;52.372;8.990;2022-12-18T02:22:36;6.13;;;3.33;;
12110;SDS011;6119;52.372;8.990;2022-12-18T02:25:33;7.37;;;3.90;;
12110;SDS011;6119;52.372;8.990;2022-12-18T02:28:40;6.40;;;3.53;;
12110;SDS011;6119;52.372;8.990;2022-12-18T02:31:31;6.53;;;3.80;;
12110;SDS011;6119;52.372;8.990;2022-12-18T02:34:22;5.10;;;3.53;;
12110;SDS011;6119;52.372;8.990;2022-12-18T02:37:17;8.77;;;4.07;;
12110;SDS011;6119;52.372;8.990;2022-12-18T02:40:07;8.17;;;3.93;;
12110;SDS011;6119;52.372;8.990;2022-12-18T02:42:56;6.17;;;3.10;;
12110;SDS011;6119;52.372;8.990;2022-12-18T02:45:50;7.03;;;3.40;;
12110;SDS011;6119;52.372;8.990;2022-12-18T02:48:39;4.17;;;2.73;;
12110;SDS011;6119;52.372;8.990;2022-12-18T02:51:27;8.50;;;3.47;;
12110;SDS011;6119;52.372;8.990;2022-12-18T02:54:21;5.23;;;3.20;;
12110;SDS011;6119;52.372;8.990;2022-12-18T02:57:19;5.03;;;2.93;;
12110;SDS011;6119;52.372;8.990;2022-12-18T03:00:19;7.27;;;3.40;;
12110;SDS011;6119;52.372;8.990;2022-12-18T03:03:09;4.30;;;2.67;;
12110;SDS011;6119;52.372;8.990;2022-12-18T03:06:04;10.33;;;3.70;;
12110;SDS011;6119;52.372;8.990;2022-12-18T03:08:56;7.03;;;3.77;;
12110;SDS011;6119;52.372;8.990;2022-12-18T03:11:45;5.60;;;2.90;;
12110;SDS011;6119;52.372;8.990;2022-12-18T03:14:54;5.20;;;3.17;;
12110;SDS011;6119;52.372;8.990;2022-12-18T03:17:48;4.33;;;2.90;;
12110;SDS011;6119;52.372;8.990;2022-12-18T03:20:40;5.77;;;3.43;;
12110;SDS011;6119;52.372;8.990;2022-12-18T03:23:30;3.70;;;2.50;;
12110;SDS011;6119;52.372;8.990;2022-12-18T03:26:22;5.90;;;3.10;;
12110;SDS011;6119;52.372;8.990;2022-12-18T03:29:12;4.00;;;2.87;;
12110;SDS011;6119;52.372;8.990;2022-12-18T03:32:04;7.30;;;3.37;;
12110;SDS011;6119;52.372;8.990;2022-12-18T03:34:55;5.43;;;3.57;;
12110;SDS011;6119;52.372;8.990;2022-12-18T03:37:45;4.53;;;2.90;;
12110;SDS011;6119;52.372;8.990;2022-12-18T03:40:35;4.87;;;2.70;;
12110;SDS011;6119;52.372;8.990;2022-12-18T03:43:33;4.37;;;3.03;;
12110;SDS011;6119;52.372;8.990;2022-12-18T03:46:27;5.00;;;2.87;;
12110;SDS011;6119;52.372;8.990;2022-12-18T03:49:19;5.30;;;2.83;;
12110;SDS011;6119;52.372;8.990;2022-12-18T03:52:14;4.37;;;2.73;;
12110;SDS011;6119;52.372;8.990;2022-12-18T03:55:06;6.60;;;2.97;;
12110;SDS011;6119;52.372;8.990;2022-12-18T03:57:55;5.57;;;3.70;;
12110;SDS011;6119;52.372;8.990;2022-12-18T04:00:43;7.50;;;3.13;;
12110;SDS011;6119;52.372;8.990;2022-12-18T04:03:31;4.27;;;2.90;;
12110;SDS011;6119;52.372;8.990;2022-12-18T04:06:20;4.80;;;2.90;;
12110;SDS011;6119;52.372;8.990;2022-12-18T04:09:09;3.97;;;2.80;;
12110;SDS011;6119;52.372;8.990;2022-12-18T04:11:56;3.83;;;3.07;;
12110;SDS011;6119;52.372;8.990;2022-12-18T04:14:42;4.97;;;2.80;;
12110;SDS011;6119;52.372;8.990;2022-12-18T04:17:29;4.10;;;2.70;;
12110;SDS011;6119;52.372;8.990;2022-12-18T04:20:16;3.43;;;2.97;;
12110;SDS011;6119;52.372;8.990;2022-12-18T04:23:03;9.20;;;3.17;;
12110;SDS011;6119;52.372;8.990;2022-12-18T04:25:51;4.37;;;2.80;;
12110;SDS011;6119;52.372;8.990;2022-12-18T04:28:37;4.00;;;3.00;;
12110;SDS011;6119;52.372;8.990;2022-12-18T04:31:24;6.50;;;3.00;;
12110;SDS011;6119;52.372;8.990;2022-12-18T04:34:11;5.93;;;3.30;;
12110;SDS011;6119;52.372;8.990;2022-12-18T04:36:58;5.17;;;3.47;;
12110;SDS011;6119;52.372;8.990;2022-12-18T04:39:44;4.87;;;3.03;;
12110;SDS011;6119;52.372;8.990;2022-12-18T04:42:32;2.37;;;2.10;;
12110;SDS011;6119;52.372;8.990;2022-12-18T04:45:19;5.93;;;3.30;;
12110;SDS011;6119;52.372;8.990;2022-12-18T04:48:05;3.60;;;2.43;;
12110;SDS011;6119;52.372;8.990;2022-12-18T04:50:52;5.33;;;3.20;;
12110;SDS011;6119;52.372;8.990;2022-12-18T04:53:39;4.80;;;2.90;;
12110;SDS011;6119;52.372;8.990;2022-12-18T04:56:25;3.33;;;2.93;;
12110;SDS011;6119;52.372;8.990;2022-12-18T04:59:13;6.63;;;2.67;;
12110;SDS011;6119;52.372;8.990;2022-12-18T05:02:00;4.77;;;3.03;;
12110;SDS011;6119;52.372;8.990;2022-12-18T05:04:47;7.80;;;5.18;;
12110;SDS011;6119;52.372;8.990;2022-12-18T05:07:33;8.97;;;4.40;;
12110;SDS011;6119;52.372;8.990;2022-12-18T05:10:20;8.13;;;3.63;;
12110;SDS011;6119;52.372;8.990;2022-12-18T05:13:06;6.47;;;2.70;;
12110;SDS011;6119;52.372;8.990;2022-12-18T05:15:54;7.03;;;3.67;;
12110;SDS011;6119;52.372;8.990;2022-12-18T05:18:42;6.30;;;3.77;;
12110;SDS011;6119;52.372;8.990;2022-12-18T05:21:28;4.27;;;2.83;;
12110;SDS011;6119;52.372;8.990;2022-12-18T05:24:15;3.33;;;2.67;;
12110;SDS011;6119;52.372;8.990;2022-12-18T05:27:02;4.20;;;3.17;;
12110;SDS011;6119;52.372;8.990;2022-12-18T05:29:49;6.83;;;3.00;;
12110;SDS011;6119;52.372;8.990;2022-12-18T05:32:37;6.53;;;3.20;;
12110;SDS011;6119;52.372;8.990;2022-12-18T05:35:24;6.93;;;3.20;;
12110;SDS011;6119;52.372;8.990;2022-12-18T05:38:11;3.23;;;2.70;;
12110;SDS011;6119;52.372;8.990;2022-12-18T05:40:57;5.53;;;2.70;;
12110;SDS011;6119;52.372;8.990;2022-12-18T05:43:44;4.17;;;3.20;;
12110;SDS011;6119;52.372;8.990;2022-12-18T05:46:30;4.90;;;3.20;;
12110;SDS011;6119;52.372;8.990;2022-12-18T05:49:18;4.60;;;2.90;;
12110;SDS011;6119;52.372;8.990;2022-12-18T05:52:05;3.83;;;2.47;;
12110;SDS011;6119;52.372;8.990;2022-12-18T05:54:52;4.43;;;2.90;;
12110;SDS011;6119;52.372;8.990;2022-12-18T05:57:39;4.47;;;3.23;;
12110;SDS011;6119;52.372;8.990;2022-12-18T06:00:26;3.50;;;2.50;;
12110;SDS011;6119;52.372;8.990;2022-12-18T06:03:13;5.37;;;2.60;;
12110;SDS011;6119;52.372;8.990;2022-12-18T06:06:02;4.10;;;2.33;;
12110;SDS011;6119;52.372;8.990;2022-12-18T06:08:49;4.17;;;2.70;;
12110;SDS011;6119;52.372;8.990;2022-12-18T06:11:36;3.37;;;2.43;;
12110;SDS011;6119;52.372;8.990;2022-12-18T06:14:23;4.23;;;2.73;;
12110;SDS011;6119;52.372;8.990;2022-12-18T06:17:10;4.97;;;3.00;;
12110;SDS011;6119;52.372;8.990;2022-12-18T06:19:56;4.97;;;2.93;;
12110;SDS011;6119;52.372;8.990;2022-12-18T06:22:44;3.60;;;2.63;;
12110;SDS011;6119;52.372;8.990;2022-12-18T06:25:31;4.30;;;2.57;;
12110;SDS011;6119;52.372;8.990;2022-12-18T06:28:18;3.83;;;2.53;;
12110;SDS011;6119;52.372;8.990;2022-12-18T06:31:05;3.57;;;2.43;;
12110;SDS011;6119;52.372;8.990;2022-12-18T06:33:52;4.23;;;2.33;;
12110;SDS011;6119;52.372;8.990;2022-12-18T06:36:39;3.77;;;2.77;;
12110;SDS011;6119;52.372;8.990;2022-12-18T06:39:28;4.30;;;2.87;;
12110;SDS011;6119;52.372;8.990;2022-12-18T06:42:14;4.70;;;2.93;;
12110;SDS011;6119;52.372;8.990;2022-12-18T06:45:01;5.10;;;3.00;;
12110;SDS011;6119;52.372;8.990;2022-12-18T06:47:48;5.37;;;3.33;;
12110;SDS011;6119;52.372;8.990;2022-12-18T06:50:35;4.97;;;2.70;;
12110;SDS011;6119;52.372;8.990;2022-12-18T06:53:21;4.23;;;2.70;;
12110;SDS011;6119;52.372;8.990;2022-12-18T06:56:09;4.13;;;2.50;;
12110;SDS011;6119;52.372;8.990;2022-12-18T06:58:56;4.63;;;2.73;;
12110;SDS011;6119;52.372;8.990;2022-12-18T07:01:43;3.80;;;2.67;;
12110;SDS011;6119;52.372;8.990;2022-12-18T07:04:30;4.63;;;2.97;;
12110;SDS011;6119;52.372;8.990;2022-12-18T07:07:17;4.67;;;2.97;;
12110;SDS011;6119;52.372;8.990;2022-12-18T07:10:04;3.17;;;2.40;;
12110;SDS011;6119;52.372;8.990;2022-12-18T07:12:52;5.00;;;3.40;;
12110;SDS011;6119;52.372;8.990;2022-12-18T07:15:39;4.43;;;2.97;;
12110;SDS011;6119;52.372;8.990;2022-12-18T07:18:27;6.00;;;2.80;;
12110;SDS011;6119;52.372;8.990;2022-12-18T07:21:14;4.97;;;3.53;;
12110;SDS011;6119;52.372;8.990;2022-12-18T07:24:03;6.47;;;3.43;;
12110;SDS011;6119;52.372;8.990;2022-12-18T07:26:51;7.27;;;4.00;;
12110;SDS011;6119;52.372;8.990;2022-12-18T07:29:39;6.53;;;3.57;;
12110;SDS011;6119;52.372;8.990;2022-12-18T07:32:26;8.33;;;3.50;;
12110;SDS011;6119;52.372;8.990;2022-12-18T07:35:12;5.97;;;3.23;;
12110;SDS011;6119;52.372;8.990;2022-12-18T07:38:04;4.83;;;2.67;;
12110;SDS011;6119;52.372;8.990;2022-12-18T07:40:51;3.20;;;2.70;;
12110;SDS011;6119;52.372;8.990;2022-12-18T07:43:38;5.53;;;2.67;;
12110;SDS011;6119;52.372;8.990;2022-12-18T07:46:27;4.83;;;2.87;;
12110;SDS011;6119;52.372;8.990;2022-12-18T07:49:14;3.30;;;2.43;;
12110;SDS011;6119;52.372;8.990;2022-12-18T07:52:00;4.93;;;2.83;;
12110;SDS011;6119;52.372;8.990;2022-12-18T07:54:47;3.60;;;2.50;;
12110;SDS011;6119;52.372;8.990;2022-12-18T07:57:35;5.40;;;3.00;;
12110;SDS011;6119;52.372;8.990;2022-12-18T08:00:41;2.77;;;2.13;;
12110;SDS011;6119;52.372;8.990;2022-12-18T08:03:30;3.47;;;2.60;;
12110;SDS011;6119;52.372;8.990;2022-12-18T08:06:16;3.37;;;2.63;;
12110;SDS011;6119;52.372;8.990;2022-12-18T08:09:07;6.03;;;2.70;;
12110;SDS011;6119;52.372;8.990;2022-12-18T08:11:55;6.60;;;3.17;;
12110;SDS011;6119;52.372;8.990;2022-12-18T08:14:42;4.73;;;2.73;;
12110;SDS011;6119;52.372;8.990;2022-12-18T08:17:29;4.67;;;2.40;;
12110;SDS011;6119;52.372;8.990;2022-12-18T08:20:17;4.37;;;2.70;;
12110;SDS011;6119;52.372;8.990;2022-12-18T08:23:03;3.93;;;2.57;;
12110;SDS011;6119;52.372;8.990;2022-12-18T08:25:50;5.27;;;2.63;;
12110;SDS011;6119;52.372;8.990;2022-12-18T08:28:36;2.57;;;2.30;;
12110;SDS011;6119;52.372;8.990;2022-12-18T08:31:24;7.00;;;2.83;;
12110;SDS011;6119;52.372;8.990;2022-12-18T08:34:11;3.80;;;2.50;;
12110;SDS011;6119;52.372;8.990;2022-12-18T08:36:59;6.00;;;2.97;;
12110;SDS011;6119;52.372;8.990;2022-12-18T08:39:46;4.17;;;2.73;;
12110;SDS011;6119;52.372;8.990;2022-12-18T08:42:32;5.90;;;2.60;;
12110;SDS011;6119;52.372;8.990;2022-12-18T08:45:36;3.67;;;2.70;;
12110;SDS011;6119;52.372;8.990;2022-12-18T08:48:23;5.07;;;3.10;;
12110;SDS011;6119;52.372;8.990;2022-12-18T08:51:10;4.83;;;2.80;;
12110;SDS011;6119;52.372;8.990;2022-12-18T08:53:58;8.03;;;3.40;;
12110;SDS011;6119;52.372;8.990;2022-12-18T08:56:45;3.97;;;2.77;;
12110;SDS011;6119;52.372;8.990;2022-12-18T08:59:32;7.43;;;3.77;;
12110;SDS011;6119;52.372;8.990;2022-12-18T09:02:18;7.47;;;3.60;;
12110;SDS011;6119;52.372;8.990;2022-12-18T09:05:05;5.17;;;3.37;;
12110;SDS011;6119;52.372;8.990;2022-12-18T09:07:52;3.93;;;3.07;;
12110;SDS011;6119;52.372;8.990;2022-12-18T09:10:42;4.30;;;2.80;;
12110;SDS011;6119;52.372;8.990;2022-12-18T09:13:29;3.57;;;2.43;;
12110;SDS011;6119;52.372;8.990;2022-12-18T09:16:16;3.03;;;2.10;;
12110;SDS011;6119;52.372;8.990;2022-12-18T09:19:04;4.27;;;2.20;;
12110;SDS011;6119;52.372;8.990;2022-12-18T09:21:51;3.57;;;2.17;;
12110;SDS011;6119;52.372;8.990;2022-12-18T09:24:38;3.00;;;1.97;;
12110;SDS011;6119;52.372;8.990;2022-12-18T09:27:26;3.30;;;1.73;;
12110;SDS011;6119;52.372;8.990;2022-12-18T09:30:13;4.50;;;2.20;;
12110;SDS011;6119;52.372;8.990;2022-12-18T09:33:00;4.67;;;2.40;;
12110;SDS011;6119;52.372;8.990;2022-12-18T09:35:47;3.53;;;2.40;;
12110;SDS011;6119;52.372;8.990;2022-12-18T09:38:34;2.83;;;2.03;;
12110;SDS011;6119;52.372;8.990;2022-12-18T09:41:27;2.53;;;2.20;;
12110;SDS011;6119;52.372;8.990;2022-12-18T09:44:24;3.83;;;2.47;;
12110;SDS011;6119;52.372;8.990;2022-12-18T09:47:15;3.67;;;2.10;;
12110;SDS011;6119;52.372;8.990;2022-12-18T09:50:05;2.17;;;1.97;;
12110;SDS011;6119;52.372;8.990;2022-12-18T09:53:07;3.20;;;1.93;;
12110;SDS011;6119;52.372;8.990;2022-12-18T09:56:01;2.47;;;2.00;;
12110;SDS011;6119;52.372;8.990;2022-12-18T09:58:52;2.27;;;1.80;;
12110;SDS011;6119;52.372;8.990;2022-12-18T10:01:44;3.70;;;2.23;;
12110;SDS011;6119;52.372;8.990;2022-12-18T10:04:31;4.53;;;2.73;;
12110;SDS011;6119;52.372;8.990;2022-12-18T10:07:19;5.67;;;2.50;;
12110;SDS011;6119;52.372;8.990;2022-12-18T10:10:14;4.97;;;2.63;;
12110;SDS011;6119;52.372;8.990;2022-12-18T10:13:10;2.20;;;1.93;;
12110;SDS011;6119;52.372;8.990;2022-12-18T10:16:05;5.03;;;2.73;;
12110;SDS011;6119;52.372;8.990;2022-12-18T10:19:08;5.07;;;2.03;;
12110;SDS011;6119;52.372;8.990;2022-12-18T10:22:10;3.13;;;2.13;;
12110;SDS011;6119;52.372;8.990;2022-12-18T10:25:02;3.67;;;2.20;;
12110;SDS011;6119;52.372;8.990;2022-12-18T10:27:52;2.83;;;1.83;;
12110;SDS011;6119;52.372;8.990;2022-12-18T10:30:42;3.10;;;1.70;;
12110;SDS011;6119;52.372;8.990;2022-12-18T10:33:30;2.50;;;1.70;;
12110;SDS011;6119;52.372;8.990;2022-12-18T10:36:19;2.80;;;1.63;;
12110;SDS011;6119;52.372;8.990;2022-12-18T10:39:14;3.07;;;1.80;;
12110;SDS011;6119;52.372;8.990;2022-12-18T10:42:08;2.23;;;1.60;;
12110;SDS011;6119;52.372;8.990;2022-12-18T10:45:00;3.17;;;2.00;;
12110;SDS011;6119;52.372;8.990;2022-12-18T10:47:49;4.17;;;2.10;;
12110;SDS011;6119;52.372;8.990;2022-12-18T10:50:36;2.10;;;1.87;;
12110;SDS011;6119;52.372;8.990;2022-12-18T10:53:50;3.07;;;1.83;;
12110;SDS011;6119;52.372;8.990;2022-12-18T10:56:40;2.57;;;1.53;;
12110;SDS011;6119;52.372;8.990;2022-12-18T10:59:28;3.57;;;2.13;;
12110;SDS011;6119;52.372;8.990;2022-12-18T11:02:36;3.03;;;2.00;;
12110;SDS011;6119;52.372;8.990;2022-12-18T11:05:26;4.17;;;2.00;;
12110;SDS011;6119;52.372;8.990;2022-12-18T11:08:20;2.00;;;1.80;;
12110;SDS011;6119;52.372;8.990;2022-12-18T11:11:15;2.60;;;1.80;;
12110;SDS011;6119;52.372;8.990;2022-12-18T11:14:05;5.03;;;2.00;;
12110;SDS011;6119;52.372;8.990;2022-12-18T11:16:59;2.53;;;1.80;;
12110;SDS011;6119;52.372;8.990;2022-12-18T11:20:07;4.40;;;2.10;;
12110;SDS011;6119;52.372;8.990;2022-12-18T11:23:10;2.37;;;1.70;;
12110;SDS011;6119;52.372;8.990;2022-12-18T11:25:59;2.90;;;2.03;;
12110;SDS011;6119;52.372;8.990;2022-12-18T11:28:51;4.50;;;2.20;;
12110;SDS011;6119;52.372;8.990;2022-12-18T11:31:38;4.47;;;2.17;;
12110;SDS011;6119;52.372;8.990;2022-12-18T11:34:25;4.67;;;2.43;;
12110;SDS011;6119;52.372;8.990;2022-12-18T11:37:15;4.57;;;2.60;;
12110;SDS011;6119;52.372;8.990;2022-12-18T11:40:06;2.70;;;2.10;;
12110;SDS011;6119;52.372;8.990;2022-12-18T11:43:00;3.50;;;2.13;;
12110;SDS011;6119;52.372;8.990;2022-12-18T11:45:59;4.33;;;2.57;;
12110;SDS011;6119;52.372;8.990;2022-12-18T11:48:49;3.77;;;2.53;;
12110;SDS011;6119;52.372;8.990;2022-12-18T11:51:43;4.03;;;2.60;;
12110;SDS011;6119;52.372;8.990;2022-12-18T11:54:35;4.10;;;2.33;;
12110;SDS011;6119;52.372;8.990;2022-12-18T11:57:26;3.20;;;2.27;;
12110;SDS011;6119;52.372;8.990;2022-12-18T12:00:20;4.43;;;2.53;;
12110;SDS011;6119;52.372;8.990;2022-12-18T12:03:18;3.03;;;2.03;;
12110;SDS011;6119;52.372;8.990;2022-12-18T12:06:13;4.23;;;2.30;;
12110;SDS011;6119;52.372;8.990;2022-12-18T12:09:09;3.13;;;1.93;;
12110;SDS011;6119;52.372;8.990;2022-12-18T12:12:03;3.60;;;1.90;;
12110;SDS011;6119;52.372;8.990;2022-12-18T12:15:02;3.00;;;2.10;;
12110;SDS011;6119;52.372;8.990;2022-12-18T12:18:00;3.93;;;2.43;;
12110;SDS011;6119;52.372;8.990;2022-12-18T12:20:58;3.53;;;2.20;;
12110;SDS011;6119;52.372;8.990;2022-12-18T12:23:51;3.30;;;2.13;;
12110;SDS011;6119;52.372;8.990;2022-12-18T12:26:45;5.73;;;2.53;;
12110;SDS011;6119;52.372;8.990;2022-12-18T12:29:45;2.90;;;2.47;;
12110;SDS011;6119;52.372;8.990;2022-12-18T12:32:45;4.57;;;2.73;;
12110;SDS011;6119;52.372;8.990;2022-12-18T12:35:44;3.50;;;2.43;;
12110;SDS011;6119;52.372;8.990;2022-12-18T12:38:41;5.93;;;3.43;;
12110;SDS011;6119;52.372;8.990;2022-12-18T12:41:36;4.40;;;2.77;;
12110;SDS011;6119;52.372;8.990;2022-12-18T12:44:42;6.67;;;3.37;;
12110;SDS011;6119;52.372;8.990;2022-12-18T12:47:40;4.30;;;2.93;;
12110;SDS011;6119;52.372;8.990;2022-12-18T12:50:29;6.13;;;3.37;;
12110;SDS011;6119;52.372;8.990;2022-12-18T12:53:22;4.87;;;3.03;;
12110;SDS011;6119;52.372;8.990;2022-12-18T12:56:15;4.90;;;3.17;;
12110;SDS011;6119;52.372;8.990;2022-12-18T12:59:05;5.70;;;3.70;;
12110;SDS011;6119;52.372;8.990;2022-12-18T13:02:02;6.30;;;3.37;;
12110;SDS011;6119;52.372;8.990;2022-12-18T13:04:57;5.33;;;3.90;;
12110;SDS011;6119;52.372;8.990;2022-12-18T13:07:50;8.13;;;4.37;;
12110;SDS011;6119;52.372;8.990;2022-12-18T13:10:42;8.60;;;4.53;;
12110;SDS011;6119;52.372;8.990;2022-12-18T13:13:30;10.40;;;5.60;;
12110;SDS011;6119;52.372;8.990;2022-12-18T13:16:35;9.23;;;5.10;;
12110;SDS011;6119;52.372;8.990;2022-12-18T13:19:22;6.03;;;4.63;;
12110;SDS011;6119;52.372;8.990;2022-12-18T13:22:22;7.43;;;5.63;;
12110;SDS011;6119;52.372;8.990;2022-12-18T13:28:50;6.33;;;4.80;;
12110;SDS011;6119;52.372;8.990;2022-12-18T13:34:48;7.53;;;4.83;;
12110;SDS011;6119;52.372;8.990;2022-12-18T13:37:43;5.27;;;4.10;;
12110;SDS011;6119;52.372;8.990;2022-12-18T13:40:53;5.80;;;4.23;;
12110;SDS011;6119;52.372;8.990;2022-12-18T13:43:41;6.13;;;3.93;;
12110;SDS011;6119;52.372;8.990;2022-12-18T13:46:41;7.67;;;4.20;;
12110;SDS011;6119;52.372;8.990;2022-12-18T13:49:31;7.33;;;3.97;;
12110;SDS011;6119;52.372;8.990;2022-12-18T13:52:24;5.63;;;3.53;;
12110;SDS011;6119;52.372;8.990;2022-12-18T13:55:15;7.90;;;4.37;;
12110;SDS011;6119;52.372;8.990;2022-12-18T13:58:05;7.17;;;4.73;;
12110;SDS011;6119;52.372;8.990;2022-12-18T14:00:52;8.07;;;4.50;;
12110;SDS011;6119;52.372;8.990;2022-12-18T14:03:40;5.50;;;4.53;;
12110;SDS011;6119;52.372;8.990;2022-12-18T14:06:28;12.90;;;6.17;;
12110;SDS011;6119;52.372;8.990;2022-12-18T14:09:16;7.40;;;5.00;;
12110;SDS011;6119;52.372;8.990;2022-12-18T14:12:12;5.83;;;3.77;;
12110;SDS011;6119;52.372;8.990;2022-12-18T14:15:20;6.03;;;4.23;;
12110;SDS011;6119;52.372;8.990;2022-12-18T14:18:21;7.13;;;4.13;;
12110;SDS011;6119;52.372;8.990;2022-12-18T14:21:17;6.63;;;4.47;;
12110;SDS011;6119;52.372;8.990;2022-12-18T14:24:12;5.60;;;3.50;;
12110;SDS011;6119;52.372;8.990;2022-12-18T14:27:12;7.03;;;4.60;;
12110;SDS011;6119;52.372;8.990;2022-12-18T14:30:18;5.50;;;3.87;;
12110;SDS011;6119;52.372;8.990;2022-12-18T14:33:14;7.57;;;4.47;;
12110;SDS011;6119;52.372;8.990;2022-12-18T14:36:03;6.47;;;4.83;;
12110;SDS011;6119;52.372;8.990;2022-12-18T14:38:53;6.43;;;4.63;;
12110;SDS011;6119;52.372;8.990;2022-12-18T14:41:41;7.20;;;4.03;;
12110;SDS011;6119;52.372;8.990;2022-12-18T14:44:27;6.13;;;4.63;;
12110;SDS011;6119;52.372;8.990;2022-12-18T14:47:34;7.63;;;4.97;;
12110;SDS011;6119;52.372;8.990;2022-12-18T14:50:21;6.73;;;4.40;;
12110;SDS011;6119;52.372;8.990;2022-12-18T14:53:17;7.17;;;4.87;;
12110;SDS011;6119;52.372;8.990;2022-12-18T14:56:15;5.93;;;3.43;;
12110;SDS011;6119;52.372;8.990;2022-12-18T14:59:04;6.27;;;4.23;;
12110;SDS011;6119;52.372;8.990;2022-12-18T15:02:09;6.37;;;4.53;;
12110;SDS011;6119;52.372;8.990;2022-12-18T15:05:02;8.57;;;5.03;;
12110;SDS011;6119;52.372;8.990;2022-12-18T15:07:57;7.00;;;4.60;;
12110;SDS011;6119;52.372;8.990;2022-12-18T15:10:46;6.70;;;4.03;;
12110;SDS011;6119;52.372;8.990;2022-12-18T15:13:34;5.80;;;3.90;;
12110;SDS011;6119;52.372;8.990;2022-12-18T15:16:21;6.07;;;4.23;;
12110;SDS011;6119;52.372;8.990;2022-12-18T15:19:09;6.83;;;4.67;;
12110;SDS011;6119;52.372;8.990;2022-12-18T15:21:55;4.37;;;3.23;;
12110;SDS011;6119;52.372;8.990;2022-12-18T15:24:50;4.50;;;3.60;;
12110;SDS011;6119;52.372;8.990;2022-12-18T15:27:37;5.77;;;4.00;;
12110;SDS011;6119;52.372;8.990;2022-12-18T15:30:25;6.97;;;4.30;;
12110;SDS011;6119;52.372;8.990;2022-12-18T15:33:16;10.57;;;5.23;;
12110;SDS011;6119;52.372;8.990;2022-12-18T15:36:10;7.80;;;4.73;;
12110;SDS011;6119;52.372;8.990;2022-12-18T15:38:58;9.00;;;5.50;;
12110;SDS011;6119;52.372;8.990;2022-12-18T15:41:50;13.00;;;7.43;;
12110;SDS011;6119;52.372;8.990;2022-12-18T15:44:51;7.07;;;4.57;;
12110;SDS011;6119;52.372;8.990;2022-12-18T15:47:39;6.20;;;3.97;;
12110;SDS011;6119;52.372;8.990;2022-12-18T15:50:27;5.23;;;3.40;;
12110;SDS011;6119;52.372;8.990;2022-12-18T15:53:14;4.60;;;2.50;;
12110;SDS011;6119;52.372;8.990;2022-12-18T15:56:01;4.63;;;2.50;;
12110;SDS011;6119;52.372;8.990;2022-12-18T15:59:08;4.27;;;2.37;;
12110;SDS011;6119;52.372;8.990;2022-12-18T16:01:57;4.27;;;2.77;;
12110;SDS011;6119;52.372;8.990;2022-12-18T16:04:46;5.47;;;2.73;;
12110;SDS011;6119;52.372;8.990;2022-12-18T16:07:32;3.67;;;2.80;;
12110;SDS011;6119;52.372;8.990;2022-12-18T16:10:19;3.50;;;2.77;;
12110;SDS011;6119;52.372;8.990;2022-12-18T16:13:06;3.30;;;2.50;;
12110;SDS011;6119;52.372;8.990;2022-12-18T16:15:55;4.53;;;2.53;;
12110;SDS011;6119;52.372;8.990;2022-12-18T16:18:42;7.53;;;2.47;;
12110;SDS011;6119;52.372;8.990;2022-12-18T16:21:30;4.20;;;2.27;;
12110;SDS011;6119;52.372;8.990;2022-12-18T16:24:18;4.77;;;2.80;;
12110;SDS011;6119;52.372;8.990;2022-12-18T16:27:07;5.70;;;2.80;;
12110;SDS011;6119;52.372;8.990;2022-12-18T16:29:53;3.50;;;2.37;;
12110;SDS011;6119;52.372;8.990;2022-12-18T16:32:40;4.27;;;2.23;;
12110;SDS011;6119;52.372;8.990;2022-12-18T16:35:26;4.27;;;2.40;;
12110;SDS011;6119;52.372;8.990;2022-12-18T16:38:14;2.97;;;2.33;;
12110;SDS011;6119;52.372;8.990;2022-12-18T16:41:01;4.57;;;2.90;;
12110;SDS011;6119;52.372;8.990;2022-12-18T16:44:15;4.30;;;2.57;;
12110;SDS011;6119;52.372;8.990;2022-12-18T16:47:02;3.00;;;2.30;;
12110;SDS011;6119;52.372;8.990;2022-12-18T16:49:50;5.60;;;2.80;;
12110;SDS011;6119;52.372;8.990;2022-12-18T16:52:37;3.53;;;2.43;;
12110;SDS011;6119;52.372;8.990;2022-12-18T16:55:26;4.20;;;2.50;;
12110;SDS011;6119;52.372;8.990;2022-12-18T16:58:13;4.07;;;2.60;;
12110;SDS011;6119;52.372;8.990;2022-12-18T17:00:59;3.93;;;2.23;;
12110;SDS011;6119;52.372;8.990;2022-12-18T17:03:50;3.10;;;2.50;;
12110;SDS011;6119;52.372;8.990;2022-12-18T17:06:38;4.83;;;2.73;;
12110;SDS011;6119;52.372;8.990;2022-12-18T17:09:26;3.27;;;2.23;;
12110;SDS011;6119;52.372;8.990;2022-12-18T17:12:14;2.83;;;2.17;;
12110;SDS011;6119;52.372;8.990;2022-12-18T17:15:00;4.93;;;2.60;;
12110;SDS011;6119;52.372;8.990;2022-12-18T17:17:47;3.50;;;2.27;;
12110;SDS011;6119;52.372;8.990;2022-12-18T17:20:34;3.03;;;2.27;;
12110;SDS011;6119;52.372;8.990;2022-12-18T17:23:21;7.40;;;2.53;;
12110;SDS011;6119;52.372;8.990;2022-12-18T17:26:07;3.20;;;2.40;;
12110;SDS011;6119;52.372;8.990;2022-12-18T17:28:56;5.00;;;2.70;;